Time;durP1;ratioP1;P1;durP2;ratioP2;P2;SDS_P1;SDS_P2;PMS_P1;PMS_P2;Temp;Humidity;BMP_temperature;BMP_pressure;BME280_temperature;BME280_humidity;BME280_pressure;Samples;Min_cycle;Max_cycle;Signal;HPM_P1;HPM_P2
2023/04/22 00:01:52;;;;;;;7.75;6.82;;;12.20;99.90;;;;;;6335306;22;20491;-71
2023/04/22 00:04:19;;;;;;;9.60;6.45;;;12.10;99.90;;;;;;6334720;22;20045;-71
2023/04/22 00:06:45;;;;;;;7.88;6.03;;;12.00;99.90;;;;;;6306158;22;20019;-71
2023/04/22 00:09:11;;;;;;;8.50;5.72;;;12.00;99.90;;;;;;6307620;22;20022;-72
2023/04/22 00:11:36;;;;;;;6.70;5.80;;;11.80;99.90;;;;;;6307557;22;20015;-72
2023/04/22 00:14:02;;;;;;;6.20;5.55;;;11.70;99.90;;;;;;6307425;22;20100;-72
2023/04/22 00:16:28;;;;;;;7.13;5.72;;;11.80;99.90;;;;;;6306651;22;20472;-72
2023/04/22 00:18:54;;;;;;;7.55;5.72;;;11.70;99.90;;;;;;6280436;22;20023;-72
2023/04/22 00:21:19;;;;;;;8.27;7.38;;;11.70;99.90;;;;;;6306431;22;20097;-72
2023/04/22 00:23:46;;;;;;;7.60;6.38;;;11.60;99.90;;;;;;6306662;22;20058;-72
2023/04/22 00:26:11;;;;;;;9.40;5.80;;;11.70;99.90;;;;;;6306737;22;20027;-72
2023/04/22 00:28:37;;;;;;;10.98;6.35;;;11.70;99.90;;;;;;6306886;22;20011;-72
2023/04/22 00:31:03;;;;;;;6.40;5.70;;;11.70;99.90;;;;;;6307033;22;20097;-72
2023/04/22 00:33:30;;;;;;;7.65;6.28;;;11.60;99.90;;;;;;6334114;22;20030;-72
2023/04/22 00:35:55;;;;;;;7.40;5.82;;;11.50;99.90;;;;;;6334460;22;20050;-72
2023/04/22 00:38:21;;;;;;;7.72;6.43;;;11.40;99.90;;;;;;6334380;22;20072;-72
2023/04/22 00:40:47;;;;;;;6.22;5.20;;;11.30;99.90;;;;;;6306157;22;20023;-72
2023/04/22 00:43:15;;;;;;;5.82;4.93;;;11.30;99.90;;;;;;6307114;22;20046;-72
2023/04/22 00:45:42;;;;;;;6.38;5.78;;;11.20;99.90;;;;;;6335459;22;20105;-72
2023/04/22 00:48:08;;;;;;;5.85;4.93;;;11.20;99.90;;;;;;6334550;22;20343;-72
2023/04/22 00:50:33;;;;;;;7.57;6.50;;;11.10;99.90;;;;;;6334161;22;20632;-72
2023/04/22 00:52:59;;;;;;;10.05;7.78;;;11.10;99.90;;;;;;6334101;22;20025;-72
2023/04/22 00:55:25;;;;;;;10.50;8.68;;;11.20;99.90;;;;;;6280681;22;20019;-72
2023/04/22 00:57:53;;;;;;;10.00;8.38;;;11.20;99.90;;;;;;6306076;22;20106;-72
2023/04/22 01:00:25;;;;;;;9.98;7.88;;;11.20;99.90;;;;;;6334450;22;20088;-72
2023/04/22 01:02:51;;;;;;;11.05;8.82;;;11.10;99.90;;;;;;6306721;22;20027;-72
2023/04/22 01:05:17;;;;;;;10.00;8.55;;;11.20;99.90;;;;;;6332241;22;20019;-72
2023/04/22 01:07:43;;;;;;;10.93;8.40;;;11.20;99.90;;;;;;6306318;22;20098;-72
2023/04/22 01:10:09;;;;;;;10.82;7.93;;;11.20;99.90;;;;;;6305787;22;20035;-71
2023/04/22 01:12:34;;;;;;;11.73;8.52;;;11.20;99.90;;;;;;6334316;22;20058;-72
2023/04/22 01:15:01;;;;;;;9.10;7.60;;;11.20;99.90;;;;;;6305444;22;20023;-72
2023/04/22 01:17:27;;;;;;;10.30;8.40;;;11.30;99.90;;;;;;6304789;22;20091;-72
2023/04/22 01:19:54;;;;;;;11.73;8.68;;;11.10;99.90;;;;;;6334233;22;20015;-72
2023/04/22 01:22:20;;;;;;;11.05;7.90;;;11.10;99.90;;;;;;6306463;22;20054;-72
2023/04/22 01:24:46;;;;;;;9.82;8.35;;;11.00;99.90;;;;;;6306609;22;20438;-72
2023/04/22 01:27:11;;;;;;;9.57;7.95;;;10.90;99.90;;;;;;6306689;22;20103;-72
2023/04/22 01:29:37;;;;;;;9.98;8.27;;;11.00;99.90;;;;;;6306819;22;20027;-71
2023/04/22 01:32:04;;;;;;;10.27;7.63;;;11.00;99.90;;;;;;6280377;22;20398;-72
2023/04/22 01:34:31;;;;;;;7.13;5.75;;;10.80;99.90;;;;;;6333834;22;20630;-71
2023/04/22 01:36:57;;;;;;;6.07;4.47;;;10.80;99.90;;;;;;6305951;22;20019;-72
2023/04/22 01:39:22;;;;;;;4.65;4.25;;;10.70;99.90;;;;;;6306534;22;20022;-72
2023/04/22 01:41:49;;;;;;;5.47;4.97;;;10.70;99.90;;;;;;6306294;22;20050;-72
2023/04/22 01:44:15;;;;;;;5.15;4.65;;;10.70;99.90;;;;;;6333766;22;20019;-72
2023/04/22 01:46:41;;;;;;;4.95;4.55;;;10.70;99.90;;;;;;6334064;22;20019;-72
2023/04/22 01:49:06;;;;;;;4.50;4.10;;;10.70;99.90;;;;;;6334333;22;20015;-72
2023/04/22 01:51:32;;;;;;;5.30;4.82;;;10.70;99.90;;;;;;6334497;22;20011;-72
2023/04/22 01:53:58;;;;;;;5.75;4.93;;;10.80;99.90;;;;;;6306562;22;20019;-72
2023/04/22 01:56:24;;;;;;;5.80;5.30;;;10.80;99.90;;;;;;6280654;22;20030;-72
2023/04/22 01:58:49;;;;;;;6.72;5.47;;;10.80;99.90;;;;;;6306452;22;20042;-72
2023/04/22 02:01:15;;;;;;;6.60;5.60;;;10.80;99.90;;;;;;6306411;22;20033;-71
2023/04/22 02:03:41;;;;;;;7.22;5.65;;;10.80;99.90;;;;;;6306179;22;20014;-72
2023/04/22 02:06:06;;;;;;;9.15;6.80;;;10.70;99.90;;;;;;6306460;22;20384;-72
2023/04/22 02:08:32;;;;;;;6.70;6.00;;;10.70;99.90;;;;;;6306366;22;20033;-72
2023/04/22 02:10:59;;;;;;;7.93;6.43;;;10.60;99.90;;;;;;6306295;22;20105;-72
2023/04/22 02:13:26;;;;;;;6.78;6.03;;;10.50;99.90;;;;;;6305993;22;20555;-72
2023/04/22 02:15:52;;;;;;;7.78;5.93;;;10.60;99.90;;;;;;6332530;22;20101;-72
2023/04/22 02:18:18;;;;;;;8.73;6.97;;;10.50;99.90;;;;;;6305706;22;20064;-72
2023/04/22 02:20:44;;;;;;;6.80;6.10;;;10.50;99.90;;;;;;6305524;22;20393;-72
2023/04/22 02:23:10;;;;;;;7.22;6.20;;;10.50;99.90;;;;;;6305556;22;20027;-72
2023/04/22 02:25:36;;;;;;;8.43;5.85;;;10.30;99.90;;;;;;6332748;22;20080;-72
2023/04/22 02:28:02;;;;;;;6.43;5.63;;;10.40;99.90;;;;;;6331749;22;20023;-72
2023/04/22 02:30:28;;;;;;;7.07;5.72;;;10.40;99.90;;;;;;6334064;22;20062;-72
2023/04/22 02:32:54;;;;;;;6.18;5.57;;;10.40;99.90;;;;;;6334069;22;20015;-72
2023/04/22 02:35:20;;;;;;;6.65;5.95;;;10.30;99.90;;;;;;6305762;22;20022;-72
2023/04/22 02:37:46;;;;;;;6.15;5.55;;;10.30;99.90;;;;;;6333928;22;20023;-72
2023/04/22 02:40:12;;;;;;;6.72;5.43;;;10.30;99.90;;;;;;6279423;22;20109;-72
2023/04/22 02:42:37;;;;;;;7.70;6.00;;;10.10;99.90;;;;;;6305727;22;20471;-72
2023/04/22 02:45:04;;;;;;;7.38;6.05;;;10.10;99.90;;;;;;6306042;22;20655;-72
2023/04/22 02:47:29;;;;;;;8.00;6.47;;;10.00;99.90;;;;;;6332954;22;20025;-71
2023/04/22 02:49:55;;;;;;;7.05;6.13;;;10.10;99.90;;;;;;6332742;22;20042;-72
2023/04/22 02:52:21;;;;;;;7.78;6.40;;;10.00;99.90;;;;;;6305531;22;20019;-72
2023/04/22 02:54:46;;;;;;;7.22;6.53;;;10.00;99.90;;;;;;6305203;22;20026;-72
2023/04/22 02:57:12;;;;;;;6.38;5.50;;;10.00;99.90;;;;;;6333650;22;20015;-72
2023/04/22 02:59:38;;;;;;;6.70;6.00;;;9.90;99.90;;;;;;6334385;22;20019;-72
2023/04/22 03:02:03;;;;;;;6.88;6.07;;;9.90;99.90;;;;;;6305851;22;20031;-72
2023/04/22 03:04:29;;;;;;;6.65;6.05;;;9.80;99.90;;;;;;6305638;22;20023;-72
2023/04/22 03:06:55;;;;;;;6.63;5.82;;;9.70;99.90;;;;;;6334075;22;20023;-72
2023/04/22 03:09:21;;;;;;;5.60;5.00;;;9.80;99.90;;;;;;6306057;22;20018;-72
2023/04/22 03:11:46;;;;;;;7.22;5.45;;;9.70;99.90;;;;;;6305322;22;20027;-72
2023/04/22 03:14:12;;;;;;;4.93;4.53;;;9.70;99.90;;;;;;6334115;22;20018;-72
2023/04/22 03:16:38;;;;;;;6.80;4.47;;;9.70;99.90;;;;;;6305369;22;20027;-72
2023/04/22 03:19:03;;;;;;;4.93;4.53;;;9.60;99.90;;;;;;6304251;22;20023;-72
2023/04/22 03:21:31;;;;;;;4.90;4.38;;;9.60;99.90;;;;;;6305156;22;20030;-72
2023/04/22 03:23:57;;;;;;;5.93;4.75;;;9.70;99.90;;;;;;6333267;22;20080;-72
2023/04/22 03:26:22;;;;;;;4.20;3.90;;;9.60;99.90;;;;;;6305444;22;20026;-72
2023/04/22 03:28:48;;;;;;;3.80;3.50;;;9.60;99.90;;;;;;6333774;22;20022;-72
2023/04/22 03:31:14;;;;;;;4.10;3.80;;;9.60;99.90;;;;;;6306039;22;20018;-71
2023/04/22 03:33:40;;;;;;;4.03;3.65;;;9.50;99.90;;;;;;6334207;22;20064;-72
2023/04/22 03:36:06;;;;;;;3.50;3.20;;;9.50;99.90;;;;;;6281864;22;20026;-71
2023/04/22 03:38:32;;;;;;;4.50;4.10;;;9.50;99.90;;;;;;6308166;22;20018;-72
2023/04/22 03:40:58;;;;;;;5.03;4.63;;;9.40;99.90;;;;;;6307167;22;20027;-72
2023/04/22 03:43:23;;;;;;;4.75;4.05;;;9.40;99.90;;;;;;6308065;22;20084;-72
2023/04/22 03:45:50;;;;;;;4.07;3.67;;;9.40;99.90;;;;;;6307210;22;20034;-72
2023/04/22 03:48:16;;;;;;;4.82;4.13;;;9.40;99.90;;;;;;6334109;22;20014;-72
2023/04/22 03:50:41;;;;;;;4.07;3.78;;;9.40;99.90;;;;;;6307551;22;20030;-72
2023/04/22 03:53:07;;;;;;;4.97;4.55;;;9.40;99.90;;;;;;6307271;22;20428;-72
2023/04/22 03:55:33;;;;;;;5.18;4.78;;;9.40;99.90;;;;;;6307083;22;20019;-72
2023/04/22 03:57:59;;;;;;;5.00;4.50;;;9.20;99.90;;;;;;6281969;22;20755;-72
2023/04/22 04:00:25;;;;;;;5.13;4.72;;;9.20;99.90;;;;;;6306994;22;20018;-72
2023/04/22 04:02:50;;;;;;;7.72;5.70;;;9.00;99.90;;;;;;6306863;22;20018;-72
2023/04/22 04:05:16;;;;;;;7.65;6.50;;;8.90;99.90;;;;;;6307863;22;20350;-72
2023/04/22 04:07:42;;;;;;;7.85;7.05;;;8.90;99.90;;;;;;6307242;22;20025;-72
2023/04/22 04:10:09;;;;;;;10.55;7.75;;;8.90;99.90;;;;;;6307072;22;20641;-72
2023/04/22 04:12:35;;;;;;;7.90;6.90;;;8.90;99.90;;;;;;6306841;22;20029;-72
2023/04/22 04:15:00;;;;;;;7.72;6.85;;;8.80;99.90;;;;;;6280925;22;20022;-72
2023/04/22 04:17:27;;;;;;;8.35;7.55;;;8.80;99.90;;;;;;6333667;22;20094;-72
2023/04/22 04:19:53;;;;;;;8.45;7.55;;;8.80;99.90;;;;;;6306728;22;20019;-72
2023/04/22 04:22:23;;;;;;;8.10;7.30;;;8.80;99.90;;;;;;6306363;22;20054;-72
2023/04/22 04:24:49;;;;;;;9.90;7.65;;;8.90;99.90;;;;;;6333975;22;20027;-72
2023/04/22 04:27:14;;;;;;;7.63;6.93;;;8.80;99.90;;;;;;6335095;22;20023;-72
2023/04/22 04:29:42;;;;;;;8.32;7.45;;;8.80;99.90;;;;;;6334999;22;20022;-72
2023/04/22 04:32:08;;;;;;;8.25;7.45;;;8.90;99.90;;;;;;6333845;22;20101;-72
2023/04/22 04:34:37;;;;;;;8.45;7.47;;;8.90;99.90;;;;;;6307415;22;20058;-72
2023/04/22 04:37:02;;;;;;;8.95;7.60;;;9.00;99.90;;;;;;6335177;22;20303;-72
2023/04/22 04:39:29;;;;;;;8.27;6.80;;;9.00;99.90;;;;;;6334521;22;20026;-72
2023/04/22 04:41:57;;;;;;;9.13;7.95;;;9.00;99.90;;;;;;6306940;22;20022;-72
2023/04/22 04:44:25;;;;;;;9.13;8.23;;;9.10;99.90;;;;;;6307010;22;20014;-72
2023/04/22 04:46:51;;;;;;;10.48;8.77;;;9.20;99.90;;;;;;6334841;22;20022;-71
2023/04/22 04:49:19;;;;;;;10.20;8.93;;;9.20;99.90;;;;;;6305762;22;20027;-72
2023/04/22 04:51:45;;;;;;;11.68;8.70;;;9.30;99.90;;;;;;6306139;22;20031;-72
2023/04/22 04:54:11;;;;;;;11.38;9.35;;;9.30;99.90;;;;;;6333727;22;20025;-72
2023/04/22 04:56:36;;;;;;;13.88;9.85;;;9.40;99.90;;;;;;6306391;22;20029;-72
2023/04/22 04:59:02;;;;;;;17.73;10.40;;;9.50;99.90;;;;;;6334545;22;20079;-72
2023/04/22 05:01:28;;;;;;;11.88;9.95;;;9.50;99.90;;;;;;6307184;22;20061;-72
2023/04/22 05:03:53;;;;;;;13.40;10.88;;;9.60;99.90;;;;;;6334463;22;20014;-72
2023/04/22 05:06:19;;;;;;;14.18;11.35;;;9.60;99.90;;;;;;6334720;22;20105;-72
2023/04/22 05:08:45;;;;;;;15.27;12.65;;;9.60;99.90;;;;;;6332885;22;20358;-72
2023/04/22 05:11:10;;;;;;;20.45;12.95;;;9.60;99.90;;;;;;6306902;22;20541;-72
2023/04/22 05:13:36;;;;;;;16.33;12.25;;;9.70;99.90;;;;;;6307145;22;20045;-72
2023/04/22 05:16:02;;;;;;;17.88;13.52;;;9.70;99.90;;;;;;6280873;22;20027;-72
2023/04/22 06:28:49;;;;;;;23.77;14.27;;;10.20;99.90;;;;;;6319193;22;20563;-72
2023/04/22 06:31:15;;;;;;;20.77;15.18;;;10.20;99.90;;;;;;6305492;22;20026;-72
2023/04/22 06:33:41;;;;;;;22.83;15.57;;;10.20;99.90;;;;;;6305706;22;20015;-71
2023/04/22 06:36:06;;;;;;;22.02;17.02;;;10.30;99.90;;;;;;6333500;22;20100;-73
2023/04/22 06:38:32;;;;;;;19.50;15.20;;;10.30;99.90;;;;;;6305642;22;20535;-73
2023/04/22 06:40:58;;;;;;;18.88;14.90;;;10.40;99.90;;;;;;6304933;22;20027;-73
2023/04/22 06:43:23;;;;;;;21.33;14.95;;;10.40;99.90;;;;;;6333179;22;20098;-75
2023/04/22 06:45:49;;;;;;;20.48;14.93;;;10.50;99.90;;;;;;6305316;22;20094;-74
2023/04/22 06:48:15;;;;;;;21.92;15.82;;;10.50;99.90;;;;;;6305473;22;20025;-76
2023/04/22 06:50:40;;;;;;;23.45;14.95;;;10.60;99.90;;;;;;6305058;22;20022;-75
2023/04/22 06:53:09;;;;;;;19.15;14.95;;;10.70;99.90;;;;;;6333281;22;20057;-76
2023/04/22 06:55:35;;;;;;;10.40;7.75;;;10.70;99.90;;;;;;6306008;22;20100;-71
2023/04/22 06:58:01;;;;;;;19.30;14.68;;;11.20;99.90;;;;;;6305821;22;20438;-74
2023/04/22 07:00:27;;;;;;;16.77;13.65;;;11.60;99.90;;;;;;6334170;22;20144;-74
2023/04/22 07:02:53;;;;;;;19.38;14.52;;;11.30;99.90;;;;;;6332124;22;20042;-73
2023/04/22 07:05:20;;;;;;;18.33;13.57;;;11.30;99.90;;;;;;6333017;22;20621;-74
2023/04/22 07:07:46;;;;;;;18.45;14.32;;;11.20;99.90;;;;;;6305017;22;20445;-70
2023/04/22 07:10:15;;;;;;;20.15;14.02;;;11.20;99.90;;;;;;6304914;22;20026;-71
2023/04/22 07:12:41;;;;;;;17.02;13.73;;;11.30;99.90;;;;;;6333483;22;20098;-71
2023/04/22 07:15:07;;;;;;;18.00;13.88;;;11.30;99.90;;;;;;6305826;22;20057;-72
2023/04/22 07:17:33;;;;;;;20.67;14.18;;;11.30;99.90;;;;;;6333570;22;20022;-71
2023/04/22 07:19:59;;;;;;;19.02;13.85;;;11.30;99.90;;;;;;6306069;22;20023;-71
2023/04/22 07:22:25;;;;;;;19.33;13.73;;;11.40;99.90;;;;;;6333881;22;20015;-71
2023/04/22 07:24:50;;;;;;;18.05;13.65;;;11.40;99.90;;;;;;6305667;22;20023;-71
2023/04/22 07:27:16;;;;;;;20.52;13.60;;;11.40;99.90;;;;;;6305702;22;20023;-71
2023/04/22 07:29:42;;;;;;;18.77;14.15;;;11.40;99.90;;;;;;6305970;22;20050;-71
2023/04/22 07:32:08;;;;;;;18.60;13.98;;;11.50;99.90;;;;;;6333633;22;20014;-71
2023/04/22 07:34:34;;;;;;;18.35;13.52;;;11.50;99.90;;;;;;6306087;22;20110;-71
2023/04/22 07:37:00;;;;;;;20.02;13.48;;;11.60;99.90;;;;;;6333785;22;20019;-70
2023/04/22 07:39:26;;;;;;;21.92;14.48;;;11.60;99.90;;;;;;6333734;22;20014;-70
2023/04/22 07:41:52;;;;;;;16.80;12.93;;;11.70;99.90;;;;;;6333959;22;20026;-70
2023/04/22 07:44:20;;;;;;;19.17;12.68;;;11.70;99.90;;;;;;6334068;22;20014;-71
2023/04/22 07:46:47;;;;;;;17.88;13.20;;;11.80;99.90;;;;;;6333827;22;20022;-71
2023/04/22 07:49:14;;;;;;;16.08;12.25;;;11.80;99.90;;;;;;6305830;22;20369;-71
2023/04/22 07:51:40;;;;;;;18.65;12.80;;;11.90;99.90;;;;;;6333464;22;20015;-70
2023/04/22 07:54:06;;;;;;;16.55;12.40;;;12.00;99.90;;;;;;6333589;22;20021;-70
2023/04/22 07:56:33;;;;;;;17.42;12.45;;;12.00;99.90;;;;;;6305771;22;20048;-70
2023/04/22 07:58:58;;;;;;;18.67;12.15;;;12.10;99.90;;;;;;6333631;22;20027;-70
2023/04/22 08:01:24;;;;;;;20.08;12.80;;;12.20;99.90;;;;;;6305358;22;20335;-70
2023/04/22 08:03:50;;;;;;;15.57;12.27;;;12.30;99.90;;;;;;6333336;22;20023;-70
2023/04/22 08:06:16;;;;;;;19.38;13.27;;;12.40;99.90;;;;;;6333681;22;20010;-70
2023/04/22 08:08:41;;;;;;;17.20;12.60;;;12.50;99.90;;;;;;6305314;22;20018;-70
2023/04/22 08:11:07;;;;;;;18.02;11.82;;;12.60;99.90;;;;;;6333093;22;20420;-72
2023/04/22 08:13:33;;;;;;;16.55;11.85;;;12.80;99.90;;;;;;6305584;22;20019;-73
2023/04/22 08:16:02;;;;;;;16.85;13.10;;;12.90;99.90;;;;;;6333038;22;20084;-73
2023/04/22 08:18:28;;;;;;;15.50;11.70;;;13.10;99.90;;;;;;6305667;22;20015;-73
2023/04/22 08:20:54;;;;;;;16.67;11.25;;;13.20;99.90;;;;;;6307117;22;20474;-72
2023/04/22 08:23:20;;;;;;;16.55;11.38;;;13.30;99.90;;;;;;6307189;22;20029;-73
2023/04/22 08:25:47;;;;;;;15.27;11.25;;;13.50;99.90;;;;;;6307207;22;20022;-73
2023/04/22 08:28:14;;;;;;;14.40;11.00;;;13.60;99.90;;;;;;6334713;22;20014;-73
2023/04/22 08:30:40;;;;;;;14.90;10.88;;;13.70;99.90;;;;;;6306535;22;20033;-72
2023/04/22 08:33:06;;;;;;;13.90;10.60;;;13.90;99.90;;;;;;6335239;22;20014;-72
2023/04/22 08:35:34;;;;;;;14.48;11.15;;;14.10;99.90;;;;;;6307120;22;20087;-73
2023/04/22 08:38:00;;;;;;;13.85;10.20;;;14.20;99.90;;;;;;6306996;22;20022;-71
2023/04/22 08:40:27;;;;;;;13.60;10.93;;;14.40;99.90;;;;;;6306935;22;20046;-71
2023/04/22 08:42:53;;;;;;;14.55;10.55;;;14.50;99.90;;;;;;6334886;22;20046;-71
2023/04/22 08:45:20;;;;;;;12.40;9.50;;;14.70;99.90;;;;;;6307102;22;20076;-71
2023/04/22 08:47:47;;;;;;;13.02;9.80;;;14.80;99.90;;;;;;6335328;22;20046;-71
2023/04/22 08:50:13;;;;;;;17.25;9.25;;;14.80;99.90;;;;;;6307220;22;20010;-71
2023/04/22 08:52:41;;;;;;;13.82;9.20;;;15.00;99.90;;;;;;6334806;22;20400;-71
2023/04/22 08:55:07;;;;;;;12.07;9.05;;;15.10;99.90;;;;;;6307044;22;20019;-71
2023/04/22 08:57:37;;;;;;;12.35;9.27;;;15.20;99.90;;;;;;6334773;22;20011;-71
2023/04/22 09:00:04;;;;;;;11.85;9.30;;;15.20;99.90;;;;;;6332486;22;20087;-71
2023/04/22 09:02:31;;;;;;;11.07;8.48;;;15.40;99.90;;;;;;6306669;22;20019;-71
2023/04/22 09:04:59;;;;;;;13.75;8.82;;;15.50;99.90;;;;;;6334329;22;20080;-71
2023/04/22 09:07:28;;;;;;;11.50;8.85;;;15.50;99.90;;;;;;6280758;22;20090;-71
2023/04/22 09:09:55;;;;;;;9.43;7.70;;;15.50;99.90;;;;;;6334473;22;20019;-72
2023/04/22 09:12:21;;;;;;;12.15;9.02;;;15.60;99.90;;;;;;6334633;22;20022;-72
2023/04/22 09:14:47;;;;;;;13.20;8.80;;;15.60;99.90;;;;;;6334576;22;20048;-72
2023/04/22 09:17:17;;;;;;;11.10;9.00;;;15.80;99.90;;;;;;6334618;22;20086;-71
2023/04/22 09:19:59;;;;;;;11.20;8.48;;;15.90;99.90;;;;;;6306483;22;20029;-72
2023/04/22 09:22:40;;;;;;;10.25;7.78;;;16.00;99.90;;;;;;6306729;22;20023;-72
2023/04/22 09:25:14;;;;;;;8.82;7.28;;;16.10;99.90;;;;;;6334221;22;20072;-72
2023/04/22 09:27:40;;;;;;;10.20;7.85;;;16.20;99.90;;;;;;6306663;22;20025;-72
2023/04/22 09:30:10;;;;;;;9.85;7.78;;;16.20;99.90;;;;;;6305871;22;20421;-71
2023/04/22 09:32:35;;;;;;;9.95;7.65;;;16.10;99.90;;;;;;6305941;22;20084;-72
2023/04/22 09:35:01;;;;;;;9.45;6.80;;;16.10;99.90;;;;;;6306366;22;20023;-72
2023/04/22 09:37:27;;;;;;;11.02;7.20;;;16.30;99.90;;;;;;6306450;22;20023;-72
2023/04/22 09:39:53;;;;;;;11.38;7.20;;;16.30;99.90;;;;;;6305853;22;20019;-72
2023/04/22 09:42:21;;;;;;;10.18;6.97;;;16.30;99.90;;;;;;6306646;22;20023;-72
2023/04/22 09:44:51;;;;;;;8.82;7.10;;;16.40;99.90;;;;;;6306660;22;20466;-72
2023/04/22 09:47:18;;;;;;;7.53;6.47;;;16.30;99.90;;;;;;6333956;22;20014;-72
2023/04/22 09:49:48;;;;;;;7.40;5.97;;;16.40;99.90;;;;;;6305936;22;20084;-72
2023/04/22 09:52:27;;;;;;;13.95;6.78;;;16.30;99.90;;;;;;6306164;22;20035;-72
2023/04/22 09:54:53;;;;;;;8.27;6.78;;;16.40;99.90;;;;;;6305974;22;20450;-72
2023/04/22 09:57:20;;;;;;;9.45;6.32;;;16.50;99.90;;;;;;6280071;22;20018;-73
2023/04/22 09:59:45;;;;;;;7.40;6.60;;;16.60;99.90;;;;;;6306459;22;20026;-73
2023/04/22 10:02:11;;;;;;;7.97;6.45;;;16.70;99.90;;;;;;6306239;22;20026;-73
2023/04/22 10:04:37;;;;;;;9.13;6.43;;;16.60;99.90;;;;;;6334240;22;20018;-74
2023/04/22 10:07:03;;;;;;;8.77;6.40;;;16.60;99.90;;;;;;6306263;22;20015;-72
2023/04/22 10:09:29;;;;;;;7.45;6.18;;;16.80;99.90;;;;;;6334448;22;20040;-74
2023/04/22 10:11:57;;;;;;;7.95;5.35;;;16.90;99.90;;;;;;6306073;22;20509;-72
2023/04/22 10:14:24;;;;;;;7.10;5.40;;;17.00;99.90;;;;;;6334241;22;20108;-72
2023/04/22 10:16:55;;;;;;;9.50;6.60;;;16.90;99.90;;;;;;6306744;22;20018;-72
2023/04/22 10:19:23;;;;;;;8.15;6.38;;;17.00;99.90;;;;;;6306530;22;20021;-72
2023/04/22 10:22:02;;;;;;;12.73;6.63;;;17.00;99.90;;;;;;6306558;22;20721;-72
2023/04/22 10:24:34;;;;;;;6.63;5.93;;;17.20;99.90;;;;;;6334861;22;20015;-74
2023/04/22 10:27:05;;;;;;;;;;;17.20;99.90;;;;;;6306790;22;20018;-72
2023/04/22 10:29:39;;;;;;;7.65;5.95;;;17.40;99.90;;;;;;6306071;22;19918;-72
2023/04/22 10:32:23;;;;;;;8.07;6.18;;;17.40;99.90;;;;;;6306204;22;20350;-72
2023/04/22 10:35:05;;;;;;;8.70;5.80;;;17.50;99.90;;;;;;6333947;22;20042;-72
2023/04/22 10:37:30;;;;;;;11.20;5.80;;;17.60;99.90;;;;;;6333930;22;20083;-73
2023/04/22 10:40:25;;;;;;;11.35;7.03;;;17.60;99.90;;;;;;6305693;22;20027;-73
2023/04/22 10:42:54;;;;;;;7.63;6.32;;;17.70;99.90;;;;;;6292136;22;20027;-72
2023/04/22 10:45:24;;;;;;;10.63;6.70;;;17.60;99.90;;;;;;6333972;22;20026;-73
2023/04/22 10:47:49;;;;;;;9.00;6.15;;;17.70;99.90;;;;;;6306060;22;20493;-73
2023/04/22 10:50:23;;;;;;;8.70;6.53;;;17.60;99.90;;;;;;6305907;22;20054;-72
2023/04/22 10:53:02;;;;;;;7.18;6.03;;;17.70;99.90;;;;;;6333896;22;20035;-73
2023/04/22 10:55:48;;;;;;;8.65;6.40;;;17.80;99.90;;;;;;6305737;22;20386;-73
2023/04/22 10:58:19;;;;;;;11.63;6.30;;;17.80;99.90;;;;;;6306406;22;20496;-73
2023/04/22 11:00:46;;;;;;;8.15;6.93;;;17.90;99.90;;;;;;6306088;22;20048;-74
2023/04/22 11:03:16;;;;;;;7.75;6.35;;;18.00;99.90;;;;;;6306031;22;20382;-75
2023/04/22 11:05:43;;;;;;;10.40;7.03;;;18.00;99.90;;;;;;6333826;22;20018;-73
2023/04/22 11:08:21;;;;;;;9.93;6.60;;;18.10;99.90;;;;;;6334105;22;20394;-73
2023/04/22 11:10:49;;;;;;;8.80;6.93;;;18.20;99.90;;;;;;6279934;22;20023;-74
2023/04/22 11:13:18;;;;;;;9.35;6.25;;;18.20;99.90;;;;;;6333987;22;20026;-75
2023/04/22 11:15:49;;;;;;;10.77;6.60;;;18.20;99.90;;;;;;6305990;22;20018;-73
2023/04/22 11:18:26;;;;;;;8.38;6.60;;;18.20;99.90;;;;;;6306077;22;20065;-75
2023/04/22 11:20:52;;;;;;;8.77;6.60;;;18.20;99.90;;;;;;6305876;22;20065;-73
2023/04/22 11:23:24;;;;;;;8.63;6.85;;;18.20;99.90;;;;;;6305964;22;20026;-73
2023/04/22 11:25:54;;;;;;;8.38;6.80;;;18.30;99.90;;;;;;6305615;22;20484;-73
2023/04/22 11:28:21;;;;;;;9.70;7.10;;;18.40;99.90;;;;;;6333503;22;20019;-75
2023/04/22 11:30:48;;;;;;;10.45;7.25;;;18.50;99.90;;;;;;6305550;22;20362;-73
2023/04/22 11:33:15;;;;;;;9.05;6.78;;;18.50;99.90;;;;;;6331841;22;20019;-76
2023/04/22 11:35:41;;;;;;;11.95;7.35;;;18.50;99.90;;;;;;6279966;22;20017;-74
2023/04/22 11:38:08;;;;;;;9.90;6.63;;;18.50;99.90;;;;;;6305695;22;20029;-73
2023/04/22 11:40:39;;;;;;;9.43;6.50;;;18.50;99.90;;;;;;6305275;22;20107;-74
2023/04/22 11:43:06;;;;;;;9.75;6.88;;;18.50;99.90;;;;;;6333942;22;20457;-74
2023/04/22 11:45:35;;;;;;;11.00;7.07;;;18.40;99.90;;;;;;6333816;22;20053;-73
2023/04/22 11:48:02;;;;;;;12.77;7.00;;;18.40;99.90;;;;;;6333768;22;20089;-74
2023/04/22 11:50:31;;;;;;;9.18;7.45;;;18.50;99.90;;;;;;6333438;22;20520;-75
2023/04/22 11:53:02;;;;;;;9.38;6.93;;;18.30;99.90;;;;;;6305301;22;20533;-73
2023/04/22 11:55:30;;;;;;;9.90;7.80;;;18.40;99.90;;;;;;6334836;22;20075;-73
2023/04/22 11:58:00;;;;;;;9.00;6.93;;;18.60;99.90;;;;;;6335476;22;20018;-73
2023/04/22 12:00:32;;;;;;;9.30;7.35;;;18.60;99.90;;;;;;6307795;22;20026;-73
2023/04/22 12:03:06;;;;;;;8.82;6.85;;;18.60;99.90;;;;;;6335359;22;20767;-73
2023/04/22 12:05:59;;;;;;;8.55;6.70;;;18.70;99.90;;;;;;6333520;22;20030;-73
2023/04/22 12:08:30;;;;;;;8.55;6.32;;;18.70;99.90;;;;;;6333522;22;20108;-74
2023/04/22 12:11:02;;;;;;;9.82;7.43;;;18.80;99.90;;;;;;6335644;22;20025;-73
2023/04/22 12:13:33;;;;;;;6.68;6.00;;;18.80;99.90;;;;;;6307762;22;20015;-73
2023/04/22 12:16:00;;;;;;;9.10;6.88;;;18.90;99.90;;;;;;6307895;22;20025;-74
2023/04/22 12:18:33;;;;;;;8.95;6.50;;;18.80;99.90;;;;;;6308081;22;20060;-74
2023/04/22 12:21:12;;;;;;;10.15;6.50;;;18.80;99.90;;;;;;6308211;22;20018;-74
2023/04/22 12:23:45;;;;;;;9.82;6.47;;;18.80;99.90;;;;;;6333880;22;20023;-77
2023/04/22 12:26:11;;;;;;;10.32;6.82;;;18.80;99.90;;;;;;6307709;22;20026;-74
2023/04/22 12:28:38;;;;;;;7.85;6.68;;;18.80;99.90;;;;;;6307420;22;20026;-74
2023/04/22 12:31:05;;;;;;;9.52;6.10;;;18.80;99.90;;;;;;6307278;22;20114;-74
2023/04/22 12:33:31;;;;;;;10.25;5.88;;;18.90;99.90;;;;;;6307219;22;20350;-74
2023/04/22 12:35:57;;;;;;;8.50;6.70;;;19.00;99.90;;;;;;6307584;22;20358;-74
2023/04/22 12:38:23;;;;;;;9.52;6.43;;;19.10;99.90;;;;;;6307272;22;20092;-75
2023/04/22 12:40:50;;;;;;;8.50;5.63;;;19.20;99.90;;;;;;6334932;22;20736;-75
2023/04/22 12:43:19;;;;;;;8.20;5.90;;;19.30;99.90;;;;;;6307212;22;20051;-75
2023/04/22 12:45:45;;;;;;;8.85;6.85;;;19.20;99.90;;;;;;6334806;22;20489;-75
2023/04/22 12:48:11;;;;;;;7.25;6.00;;;19.20;99.90;;;;;;6334874;22;20046;-75
2023/04/22 12:50:37;;;;;;;10.27;7.00;;;19.30;99.90;;;;;;6307101;22;20098;-74
2023/04/22 12:53:02;;;;;;;10.30;7.13;;;19.10;99.90;;;;;;6306969;22;20026;-75
2023/04/22 12:55:29;;;;;;;9.45;6.43;;;19.10;99.90;;;;;;6335112;22;20519;-75
2023/04/22 12:57:55;;;;;;;8.45;6.60;;;19.20;99.90;;;;;;6334688;22;20149;-75
2023/04/22 13:00:23;;;;;;;7.75;6.22;;;19.20;99.90;;;;;;6306874;22;20417;-75
2023/04/22 13:02:49;;;;;;;8.35;5.63;;;19.20;99.90;;;;;;6335013;22;20026;-75
2023/04/22 13:05:16;;;;;;;7.55;5.38;;;19.20;99.90;;;;;;6306902;22;20018;-75
2023/04/22 13:07:41;;;;;;;10.82;6.25;;;19.20;99.90;;;;;;6306681;22;20081;-75
2023/04/22 13:10:12;;;;;;;6.88;6.00;;;19.30;99.90;;;;;;6306920;22;20046;-75
2023/04/22 13:12:38;;;;;;;9.23;6.40;;;19.30;99.90;;;;;;6307030;22;20015;-75
2023/04/22 13:15:05;;;;;;;9.13;7.13;;;19.30;99.90;;;;;;6334780;22;20379;-75
2023/04/22 13:17:31;;;;;;;9.32;7.03;;;19.30;99.90;;;;;;6334424;22;20015;-75
2023/04/22 13:19:57;;;;;;;8.63;6.10;;;19.40;99.90;;;;;;6334375;22;20080;-75
2023/04/22 13:22:23;;;;;;;9.98;6.45;;;19.40;99.90;;;;;;6334603;22;20015;-75
2023/04/22 13:24:49;;;;;;;9.60;7.03;;;19.60;99.90;;;;;;6306699;22;20060;-74
2023/04/22 13:27:15;;;;;;;10.23;7.10;;;19.50;99.90;;;;;;6306722;22;20022;-75
2023/04/22 13:29:41;;;;;;;12.55;6.63;;;19.40;99.90;;;;;;6280713;22;20033;-75
2023/04/22 13:32:08;;;;;;;10.25;7.13;;;19.50;99.90;;;;;;6334669;22;20358;-75
2023/04/22 13:34:33;;;;;;;10.35;7.60;;;19.40;99.90;;;;;;6334443;22;20654;-75
2023/04/22 13:36:59;;;;;;;12.98;6.63;;;19.40;99.90;;;;;;6334709;22;20099;-75
2023/04/22 13:39:25;;;;;;;7.82;6.22;;;19.40;99.90;;;;;;6334578;22;20026;-75
2023/04/22 13:41:51;;;;;;;7.65;6.15;;;19.30;99.90;;;;;;6306624;22;20019;-75
2023/04/22 13:44:17;;;;;;;9.02;6.03;;;19.20;99.90;;;;;;6334900;22;20030;-75
2023/04/22 13:46:43;;;;;;;7.13;5.72;;;19.20;99.90;;;;;;6307173;22;20030;-75
2023/04/22 13:49:10;;;;;;;8.63;5.90;;;19.20;99.90;;;;;;6334598;22;20457;-75
2023/04/22 13:51:36;;;;;;;7.10;5.82;;;19.00;99.90;;;;;;6306597;22;20529;-75
2023/04/22 13:54:03;;;;;;;8.00;5.65;;;19.00;99.90;;;;;;6306674;22;20019;-75